Time;durP1;ratioP1;P1;durP2;ratioP2;P2;SDS_P1;SDS_P2;PMS_P1;PMS_P2;Temp;Humidity;BMP_temperature;BMP_pressure;BME280_temperature;BME280_humidity;BME280_pressure;Samples;Min_cycle;Max_cycle;Signal;HPM_P1;HPM_P2
2022/04/18 00:02:35;;;;;;;5.80;3.20;;;6.00;53.60;;;;;;6267886;28;20194;-74
2022/04/18 00:05:35;;;;;;;4.97;2.73;;;6.00;53.90;;;;;;6283011;28;20250;-74
2022/04/18 00:08:36;;;;;;;3.80;3.30;;;5.90;53.60;;;;;;6285334;28;20219;-75
2022/04/18 00:11:37;;;;;;;3.57;3.10;;;5.80;53.20;;;;;;6285348;28;20286;-75
2022/04/18 00:14:38;;;;;;;3.27;2.60;;;5.80;53.50;;;;;;6294230;28;20199;-73
2022/04/18 00:17:39;;;;;;;4.63;3.17;;;5.80;54.00;;;;;;6286535;28;20184;-74
2022/04/18 00:20:40;;;;;;;5.87;3.30;;;5.70;54.50;;;;;;6316913;28;20187;-75
2022/04/18 00:23:43;;;;;;;3.80;2.77;;;5.70;54.50;;;;;;6276182;28;20195;-72
2022/04/18 00:26:44;;;;;;;3.20;2.90;;;5.70;54.80;;;;;;6290891;28;20196;-72
2022/04/18 00:29:45;;;;;;;4.30;2.80;;;5.70;54.30;;;;;;6275301;28;20230;-72
2022/04/18 00:32:45;;;;;;;4.20;2.60;;;5.60;54.30;;;;;;6283687;28;20189;-73
2022/04/18 00:35:47;;;;;;;4.40;2.90;;;5.50;54.80;;;;;;6286453;28;20262;-73
2022/04/18 00:38:48;;;;;;;7.37;3.53;;;5.40;55.10;;;;;;6300110;28;20188;-75
2022/04/18 00:41:49;;;;;;;4.53;3.50;;;5.30;55.40;;;;;;6272581;28;20223;-75
2022/04/18 00:44:50;;;;;;;2.87;2.50;;;5.20;56.00;;;;;;6280084;28;20199;-75
2022/04/18 00:47:50;;;;;;;3.33;2.70;;;5.10;56.10;;;;;;6291049;28;20185;-75
2022/04/18 00:50:51;;;;;;;5.13;2.80;;;5.00;56.50;;;;;;6291971;28;20220;-74
2022/04/18 00:53:55;;;;;;;4.43;3.10;;;5.00;56.70;;;;;;6309428;28;20187;-74
2022/04/18 00:56:56;;;;;;;4.20;3.10;;;5.00;56.80;;;;;;6310785;28;20276;-74
2022/04/18 00:59:57;;;;;;;3.87;2.90;;;5.00;56.80;;;;;;6266012;28;20189;-74
2022/04/18 01:02:58;;;;;;;4.30;2.90;;;4.90;56.90;;;;;;6266000;28;20242;-74
2022/04/18 01:06:03;;;;;;;5.57;3.70;;;4.90;57.00;;;;;;6269948;28;20202;-74
2022/04/18 01:09:04;;;;;;;3.50;2.80;;;4.80;57.30;;;;;;6307031;28;20219;-74
2022/04/18 01:12:05;;;;;;;4.00;3.33;;;4.80;57.70;;;;;;6282325;28;20189;-74
2022/04/18 01:15:25;;;;;;;4.10;3.20;;;4.80;57.80;;;;;;6270980;28;20194;-74
2022/04/18 01:18:49;;;;;;;3.63;2.90;;;4.80;57.80;;;;;;6285242;28;20273;-74
2022/04/18 01:22:09;;;;;;;4.50;3.37;;;4.80;57.80;;;;;;6284758;28;20198;-74
2022/04/18 01:28:58;;;;;;;3.67;3.10;;;4.70;58.10;;;;;;6291130;28;20242;-76
2022/04/18 01:31:59;;;;;;;3.37;2.83;;;4.60;58.20;;;;;;6263276;28;20240;-76
2022/04/18 01:35:00;;;;;;;3.63;3.00;;;4.60;57.90;;;;;;6257771;28;20195;-76
2022/04/18 01:38:04;;;;;;;3.23;2.93;;;4.50;58.20;;;;;;6236678;28;20221;-76
2022/04/18 01:41:05;;;;;;;4.17;3.70;;;4.60;58.50;;;;;;6237438;28;20255;-76
2022/04/18 01:44:05;;;;;;;6.40;3.27;;;4.50;58.60;;;;;;6232246;28;20214;-75
2022/04/18 01:47:06;;;;;;;4.63;3.00;;;4.40;58.50;;;;;;6232613;28;20190;-75
2022/04/18 01:50:08;;;;;;;3.63;3.10;;;4.40;58.40;;;;;;6232558;28;20268;-76
2022/04/18 01:53:09;;;;;;;3.70;3.00;;;4.30;58.60;;;;;;6232511;28;20278;-76
2022/04/18 01:56:09;;;;;;;3.47;3.10;;;4.30;58.80;;;;;;6238058;28;20193;-76
2022/04/18 01:59:12;;;;;;;3.00;2.67;;;4.20;59.00;;;;;;6232339;28;20683;-75
2022/04/18 02:02:14;;;;;;;3.27;2.40;;;4.20;59.10;;;;;;6232646;28;20223;-75
2022/04/18 02:05:14;;;;;;;5.50;3.20;;;4.20;59.20;;;;;;6255805;28;20193;-75
2022/04/18 02:08:15;;;;;;;3.43;2.97;;;4.20;59.40;;;;;;6256730;28;20215;-75
2022/04/18 02:11:17;;;;;;;4.73;3.10;;;4.20;59.70;;;;;;6256419;28;20280;-75
2022/04/18 02:14:18;;;;;;;3.17;2.83;;;4.10;59.80;;;;;;6256659;28;20192;-72
2022/04/18 02:17:19;;;;;;;4.90;3.23;;;4.10;60.00;;;;;;6256031;28;20189;-72
2022/04/18 02:20:20;;;;;;;3.60;3.17;;;4.00;60.20;;;;;;6237537;28;20198;-73
2022/04/18 02:23:21;;;;;;;3.40;2.60;;;3.90;60.20;;;;;;6237384;28;20194;-75
2022/04/18 02:26:22;;;;;;;5.13;3.07;;;3.80;60.60;;;;;;6250197;28;20193;-75
2022/04/18 02:29:33;;;;;;;3.00;2.70;;;3.80;60.70;;;;;;6253361;28;20292;-75
2022/04/18 02:32:52;;;;;;;4.73;3.10;;;3.80;60.90;;;;;;6237132;28;20244;-75
2022/04/18 02:35:55;;;;;;;5.13;3.30;;;3.80;60.70;;;;;;6240127;28;20191;-73
2022/04/18 02:38:59;;;;;;;3.90;3.37;;;3.80;60.60;;;;;;6237631;28;20191;-72
2022/04/18 02:42:00;;;;;;;4.73;3.03;;;3.80;61.00;;;;;;6236746;28;20205;-72
2022/04/18 02:45:05;;;;;;;2.73;2.53;;;3.80;61.00;;;;;;6251962;28;20194;-72
2022/04/18 02:48:24;;;;;;;5.77;3.27;;;3.80;61.30;;;;;;6263672;28;20218;-72
2022/04/18 02:51:28;;;;;;;4.07;3.03;;;3.80;61.30;;;;;;6260959;28;20225;-72
2022/04/18 02:54:32;;;;;;;6.23;4.10;;;3.70;61.60;;;;;;6223127;28;20194;-72
2022/04/18 02:57:33;;;;;;;5.03;3.20;;;3.70;61.70;;;;;;6252513;28;20190;-72
2022/04/18 03:00:34;;;;;;;3.97;3.30;;;3.60;61.70;;;;;;6236500;28;20664;-72
2022/04/18 03:03:35;;;;;;;3.97;2.73;;;3.70;62.20;;;;;;6236138;28;20222;-72
2022/04/18 03:06:38;;;;;;;3.60;2.70;;;3.60;62.10;;;;;;6236485;28;20194;-72
2022/04/18 03:09:41;;;;;;;5.47;3.07;;;3.60;62.50;;;;;;6236667;28;20214;-72
2022/04/18 03:12:42;;;;;;;5.33;3.20;;;3.50;63.00;;;;;;6235815;28;20178;-71
2022/04/18 03:15:43;;;;;;;4.00;3.10;;;3.50;63.00;;;;;;6249814;28;20194;-72
2022/04/18 03:18:44;;;;;;;3.10;2.80;;;3.50;63.00;;;;;;6235628;28;20220;-72
2022/04/18 03:21:45;;;;;;;3.60;2.33;;;3.40;63.10;;;;;;6236214;28;20278;-71
2022/04/18 03:24:46;;;;;;;4.47;3.10;;;3.40;63.20;;;;;;6236023;28;20186;-72
2022/04/18 03:27:51;;;;;;;5.37;3.00;;;3.40;63.50;;;;;;6273382;28;20195;-71
2022/04/18 03:30:52;;;;;;;5.60;3.77;;;3.30;63.40;;;;;;6244729;28;20237;-72
2022/04/18 03:33:54;;;;;;;3.83;3.10;;;3.30;63.30;;;;;;6241981;28;20191;-75
2022/04/18 03:40:14;;;;;;;4.33;3.10;;;3.30;63.80;;;;;;6247779;28;20274;-73
2022/04/18 03:43:15;;;;;;;4.97;3.23;;;3.30;63.90;;;;;;6235641;28;20178;-73
2022/04/18 03:46:16;;;;;;;5.00;3.37;;;3.30;63.80;;;;;;6243161;28;20204;-73
2022/04/18 03:49:18;;;;;;;4.43;3.43;;;3.20;63.90;;;;;;6260117;28;20214;-72
2022/04/18 03:52:23;;;;;;;6.40;4.20;;;3.10;63.90;;;;;;6251919;28;20190;-72
2022/04/18 03:55:25;;;;;;;6.33;3.73;;;3.10;64.00;;;;;;6251769;28;20194;-72
2022/04/18 03:58:26;;;;;;;5.17;3.40;;;3.00;63.90;;;;;;6251394;28;20248;-72
2022/04/18 04:01:27;;;;;;;5.90;4.30;;;3.00;64.00;;;;;;6251753;28;20177;-72
2022/04/18 04:04:29;;;;;;;7.23;4.20;;;2.90;64.10;;;;;;6251187;28;20194;-72
2022/04/18 04:07:34;;;;;;;5.33;3.90;;;2.90;64.20;;;;;;6250081;28;20195;-72
2022/04/18 04:11:11;;;;;;;4.07;3.40;;;2.80;64.30;;;;;;6250782;28;20293;-73
2022/04/18 04:14:15;;;;;;;5.37;3.23;;;2.80;64.30;;;;;;6247761;28;20199;-73
2022/04/18 04:17:15;;;;;;;6.67;3.63;;;2.80;64.70;;;;;;6237049;28;20340;-74
2022/04/18 04:20:19;;;;;;;8.27;3.90;;;2.80;65.10;;;;;;6239602;28;20230;-75
2022/04/18 04:23:20;;;;;;;5.07;3.13;;;2.80;65.20;;;;;;6256315;28;20195;-75
2022/04/18 04:26:24;;;;;;;4.43;2.53;;;2.80;65.30;;;;;;6235192;28;20190;-75
2022/04/18 04:29:27;;;;;;;4.50;3.30;;;2.80;65.20;;;;;;6259141;28;20207;-74
2022/04/18 04:32:32;;;;;;;4.20;3.03;;;2.80;65.30;;;;;;6245301;28;20246;-74
2022/04/18 04:35:33;;;;;;;4.53;2.70;;;2.80;65.70;;;;;;6257875;28;20214;-73
2022/04/18 04:38:41;;;;;;;5.20;3.50;;;2.80;65.90;;;;;;6242383;28;20244;-74
2022/04/18 04:41:49;;;;;;;4.97;3.63;;;2.90;65.60;;;;;;6247406;28;20199;-75
2022/04/18 04:44:50;;;;;;;3.93;2.73;;;2.90;65.40;;;;;;6246671;28;20212;-73
2022/04/18 04:47:57;;;;;;;2.93;2.57;;;2.90;65.40;;;;;;6235703;28;20198;-74
2022/04/18 04:50:59;;;;;;;3.93;2.73;;;2.90;65.60;;;;;;6233730;28;20195;-74
2022/04/18 04:54:00;;;;;;;3.93;2.50;;;3.00;65.60;;;;;;6240225;28;20277;-74
2022/04/18 04:57:06;;;;;;;3.03;2.70;;;3.00;65.40;;;;;;6234986;28;20199;-73
2022/04/18 05:00:26;;;;;;;3.60;2.80;;;3.00;65.30;;;;;;6240837;28;20276;-73
2022/04/18 05:03:43;;;;;;;4.60;3.17;;;3.00;65.30;;;;;;6235168;28;20191;-75
2022/04/18 05:06:44;;;;;;;4.50;3.00;;;3.00;65.50;;;;;;6230916;28;20290;-75
2022/04/18 05:09:53;;;;;;;4.43;2.80;;;3.10;65.60;;;;;;6237338;28;20194;-75
2022/04/18 05:12:53;;;;;;;3.73;3.13;;;3.10;65.20;;;;;;6225651;28;20285;-74
2022/04/18 05:15:54;;;;;;;3.67;2.97;;;3.20;65.30;;;;;;6241190;28;20194;-74
2022/04/18 05:19:14;;;;;;;4.20;2.70;;;3.30;64.80;;;;;;6251585;28;20214;-74
2022/04/18 05:22:15;;;;;;;6.37;3.00;;;3.30;64.80;;;;;;6243814;28;20285;-75
2022/04/18 05:25:16;;;;;;;3.50;3.03;;;3.30;64.50;;;;;;6237018;28;20197;-75
2022/04/18 05:28:19;;;;;;;4.40;2.90;;;3.40;64.50;;;;;;6252205;28;20200;-74
2022/04/18 05:31:25;;;;;;;4.40;2.87;;;3.40;64.30;;;;;;6218457;28;20272;-74
2022/04/18 05:34:26;;;;;;;4.63;3.43;;;3.30;64.30;;;;;;6263535;28;20194;-70
2022/04/18 05:37:37;;;;;;;4.00;3.20;;;3.40;64.70;;;;;;6234058;28;20243;-68
2022/04/18 05:40:41;;;;;;;3.47;2.77;;;3.40;65.20;;;;;;6242906;28;20217;-73
2022/04/18 05:43:42;;;;;;;4.87;3.13;;;3.40;64.70;;;;;;6251633;28;20209;-74
2022/04/18 05:46:44;;;;;;;6.60;3.03;;;3.40;64.70;;;;;;6232640;28;20281;-75
2022/04/18 05:49:45;;;;;;;3.77;2.60;;;3.50;64.60;;;;;;6248630;28;20189;-73
2022/04/18 05:52:47;;;;;;;4.00;2.70;;;3.50;64.40;;;;;;6257467;28;20204;-74
2022/04/18 05:56:17;;;;;;;3.27;2.50;;;3.60;64.20;;;;;;6255592;28;20320;-74
2022/04/18 05:59:23;;;;;;;5.10;3.33;;;3.70;64.30;;;;;;6259677;28;20289;-75
2022/04/18 06:02:33;;;;;;;3.77;2.43;;;3.70;64.60;;;;;;6260678;28;20195;-74
2022/04/18 06:05:39;;;;;;;3.17;2.80;;;3.80;64.30;;;;;;6256949;28;20194;-75
2022/04/18 06:08:49;;;;;;;5.23;3.17;;;3.90;64.30;;;;;;6248262;28;20365;-74
2022/04/18 06:11:56;;;;;;;5.30;2.53;;;4.00;63.60;;;;;;6235024;28;20198;-75
2022/04/18 06:15:01;;;;;;;5.43;3.47;;;4.10;62.60;;;;;;6264050;28;20191;-69
2022/04/18 06:18:03;;;;;;;4.53;3.07;;;4.10;62.90;;;;;;6271000;28;20200;-69
2022/04/18 06:21:04;;;;;;;3.40;3.00;;;4.20;62.80;;;;;;6265151;28;20300;-70
2022/04/18 06:24:06;;;;;;;5.00;2.80;;;4.30;62.90;;;;;;6217987;28;20217;-74
2022/04/18 06:27:14;;;;;;;4.43;3.00;;;4.40;62.40;;;;;;6242497;28;20191;-75
2022/04/18 06:30:15;;;;;;;3.87;2.43;;;4.50;62.10;;;;;;6258695;28;20232;-74
2022/04/18 06:33:45;;;;;;;3.67;3.07;;;4.60;60.90;;;;;;6276570;28;20243;-74
2022/04/18 06:36:46;;;;;;;2.43;2.17;;;4.80;60.40;;;;;;6289250;28;20181;-75
2022/04/18 06:40:07;;;;;;;2.50;2.30;;;4.90;60.30;;;;;;6286214;28;20220;-74
2022/04/18 06:43:15;;;;;;;3.17;2.57;;;4.90;60.30;;;;;;6249525;28;20184;-72
2022/04/18 06:46:20;;;;;;;3.60;2.30;;;5.10;59.80;;;;;;6279451;28;20192;-71
2022/04/18 06:49:21;;;;;;;3.33;2.67;;;5.20;59.50;;;;;;6289012;28;20188;-72
2022/04/18 06:52:46;;;;;;;3.87;2.30;;;5.30;59.10;;;;;;6305456;28;20208;-71
2022/04/18 06:59:36;;;;;;;2.67;2.20;;;5.60;58.90;;;;;;6274229;28;20213;-73
2022/04/18 07:02:44;;;;;;;2.63;2.30;;;5.70;58.30;;;;;;6264134;28;20193;-74
2022/04/18 07:05:45;;;;;;;2.50;2.20;;;5.90;57.10;;;;;;6264550;28;20192;-74
2022/04/18 07:08:46;;;;;;;2.73;2.00;;;6.10;57.70;;;;;;6293237;28;20328;-72
2022/04/18 07:12:09;;;;;;;2.67;2.00;;;6.30;56.30;;;;;;6313069;28;20192;-73
2022/04/18 07:15:10;;;;;;;1.97;1.63;;;6.60;54.50;;;;;;6277517;28;20217;-74
2022/04/18 07:18:12;;;;;;;2.33;1.80;;;7.00;51.20;;;;;;6268292;28;20193;-73
2022/04/18 07:21:13;;;;;;;2.33;1.70;;;7.30;48.80;;;;;;6266482;28;20262;-72
2022/04/18 07:24:16;;;;;;;2.50;1.70;;;7.60;49.20;;;;;;6286495;28;20218;-73
2022/04/18 07:27:19;;;;;;;1.60;1.40;;;8.00;45.70;;;;;;6302594;28;20196;-73
2022/04/18 07:30:30;;;;;;;1.27;1.17;;;8.30;44.60;;;;;;6298232;28;20248;-75
2022/04/18 07:33:30;;;;;;;2.23;1.60;;;8.60;43.10;;;;;;6293351;28;20198;-74
2022/04/18 07:36:32;;;;;;;1.90;1.23;;;8.80;41.80;;;;;;6291485;28;20199;-74
2022/04/18 07:39:34;;;;;;;2.13;1.30;;;9.00;41.80;;;;;;6306456;28;20224;-75
2022/04/18 07:42:35;;;;;;;1.17;1.10;;;9.30;41.10;;;;;;6265035;28;20204;-74
2022/04/18 07:45:40;;;;;;;2.17;1.50;;;9.60;39.40;;;;;;6282116;28;20186;-76
2022/04/18 07:48:41;;;;;;;1.60;1.17;;;9.80;39.20;;;;;;6290767;28;20197;-76
2022/04/18 07:51:42;;;;;;;1.10;1.00;;;10.00;39.40;;;;;;6280776;28;20190;-74
2022/04/18 07:55:16;;;;;;;0.93;0.90;;;10.30;38.60;;;;;;6266719;28;20199;-75
2022/04/18 07:58:17;;;;;;;1.20;1.10;;;10.30;37.80;;;;;;6279989;28;20250;-74
2022/04/18 08:01:19;;;;;;;2.10;1.13;;;10.50;37.20;;;;;;6275899;28;20188;-74
2022/04/18 08:04:20;;;;;;;1.00;1.00;;;10.60;37.50;;;;;;6288488;28;20185;-74
2022/04/18 08:07:20;;;;;;;1.70;0.90;;;10.70;37.40;;;;;;6289051;28;20207;-74
2022/04/18 08:10:21;;;;;;;0.80;0.80;;;10.90;36.40;;;;;;6271878;28;20242;-75
2022/04/18 08:13:23;;;;;;;2.00;1.27;;;11.00;37.00;;;;;;6280742;28;20196;-75
2022/04/18 08:16:50;;;;;;;1.33;0.87;;;11.10;36.00;;;;;;6286221;28;20321;-73
2022/04/18 08:20:00;;;;;;;1.03;0.90;;;11.10;36.00;;;;;;6264391;28;20228;-73
2022/04/18 08:23:01;;;;;;;1.90;1.23;;;11.10;35.90;;;;;;6265724;28;20185;-73
2022/04/18 08:26:21;;;;;;;1.30;1.20;;;11.20;36.40;;;;;;6287770;28;20253;-73
2022/04/18 08:29:25;;;;;;;1.07;1.00;;;11.30;36.00;;;;;;6266406;28;20198;-73
2022/04/18 08:32:45;;;;;;;1.30;1.10;;;11.50;35.40;;;;;;6270704;28;20213;-73
2022/04/18 08:35:46;;;;;;;1.53;1.00;;;11.60;35.30;;;;;;6282166;28;20203;-73
2022/04/18 08:38:48;;;;;;;1.30;1.00;;;11.80;35.70;;;;;;6291456;28;20212;-73
2022/04/18 08:42:08;;;;;;;1.23;1.00;;;11.90;35.40;;;;;;6303770;28;20197;-73
2022/04/18 08:45:15;;;;;;;1.00;0.90;;;12.20;35.10;;;;;;6274426;28;20232;-72
2022/04/18 08:54:58;;;;;;;1.67;1.20;;;12.30;34.00;;;;;;6304821;28;20231;-73
2022/04/18 08:58:00;;;;;;;1.40;0.90;;;12.20;34.50;;;;;;6276011;28;20183;-73
2022/04/18 09:01:07;;;;;;;1.43;1.17;;;12.30;33.80;;;;;;6267022;28;20286;-73
2022/04/18 09:04:26;;;;;;;1.93;1.30;;;12.30;34.20;;;;;;6277164;28;20202;-73
2022/04/18 09:07:29;;;;;;;1.33;1.20;;;12.20;33.60;;;;;;6249978;28;20256;-72
2022/04/18 09:10:33;;;;;;;1.40;1.30;;;12.20;33.00;;;;;;6249875;28;20189;-72
2022/04/18 09:13:42;;;;;;;1.53;1.10;;;12.20;33.60;;;;;;6282544;28;20186;-73
2022/04/18 09:16:44;;;;;;;1.50;1.13;;;12.20;34.20;;;;;;6281977;28;20190;-73
2022/04/18 09:20:09;;;;;;;1.27;1.10;;;12.30;34.30;;;;;;6274065;28;20224;-73
2022/04/18 09:23:20;;;;;;;1.80;1.43;;;12.50;32.30;;;;;;6276633;28;20243;-73
2022/04/18 09:26:24;;;;;;;2.07;1.37;;;12.60;31.90;;;;;;6286733;28;20269;-73
2022/04/18 09:29:33;;;;;;;1.70;1.23;;;12.60;32.20;;;;;;6289572;28;20188;-73
2022/04/18 09:32:35;;;;;;;2.27;1.20;;;12.30;32.40;;;;;;6306479;28;20317;-73
2022/04/18 09:36:20;;;;;;;2.63;1.80;;;12.30;32.30;;;;;;6293400;28;20182;-68
2022/04/18 09:39:24;;;;;;;5.80;1.97;;;12.10;32.40;;;;;;6286672;28;20210;-68
2022/04/18 09:42:53;;;;;;;2.00;1.70;;;12.00;33.20;;;;;;6302506;28;20207;-68
2022/04/18 09:46:02;;;;;;;2.40;1.87;;;12.00;34.50;;;;;;6285243;28;20213;-67
2022/04/18 09:49:04;;;;;;;1.63;1.30;;;12.20;33.90;;;;;;6272641;28;20218;-67
2022/04/18 09:52:09;;;;;;;1.87;1.50;;;12.20;33.40;;;;;;6266210;28;20220;-73
2022/04/18 09:55:11;;;;;;;2.53;1.43;;;12.30;33.40;;;;;;6282503;28;20208;-73
2022/04/18 09:58:12;;;;;;;1.37;1.20;;;12.40;33.40;;;;;;6283263;28;20188;-73
2022/04/18 10:01:13;;;;;;;2.40;1.60;;;12.40;33.20;;;;;;6247681;28;20244;-73
2022/04/18 10:04:16;;;;;;;1.23;1.13;;;12.50;33.70;;;;;;6284436;28;20235;-73
2022/04/18 10:07:16;;;;;;;2.07;1.70;;;12.50;32.90;;;;;;6286969;28;20185;-73
2022/04/18 10:10:19;;;;;;;1.83;1.33;;;12.30;33.30;;;;;;6282576;28;20258;-73
2022/04/18 10:13:21;;;;;;;1.73;1.20;;;12.30;33.00;;;;;;6253329;28;20284;-73
2022/04/18 10:16:23;;;;;;;2.87;1.63;;;12.20;33.90;;;;;;6268717;28;20193;-73
2022/04/18 10:20:02;;;;;;;1.60;1.27;;;12.10;33.50;;;;;;6284926;28;20215;-73
2022/04/18 10:23:24;;;;;;;1.20;1.10;;;11.90;34.40;;;;;;6281729;28;20184;-73
2022/04/18 10:26:47;;;;;;;1.30;1.20;;;11.80;34.30;;;;;;6289199;28;20212;-73
2022/04/18 10:29:53;;;;;;;1.50;1.40;;;11.70;34.50;;;;;;6274438;28;20184;-73
2022/04/18 10:32:55;;;;;;;1.10;1.00;;;11.60;34.50;;;;;;6284069;28;20201;-68
2022/04/18 10:36:02;;;;;;;1.07;0.97;;;11.60;34.20;;;;;;6281987;28;20197;-72
2022/04/18 10:39:06;;;;;;;1.30;1.20;;;11.80;34.90;;;;;;6305511;28;20304;-71
2022/04/18 10:42:27;;;;;;;2.30;1.40;;;11.90;34.00;;;;;;6304361;28;20675;-71
2022/04/18 10:45:27;;;;;;;1.87;1.40;;;12.10;33.30;;;;;;6295709;28;20189;-70
2022/04/18 10:48:37;;;;;;;1.13;1.03;;;12.30;33.20;;;;;;6253001;28;20180;-70
2022/04/18 10:51:40;;;;;;;1.20;1.10;;;12.50;33.10;;;;;;6305720;28;20211;-70
2022/04/18 10:54:59;;;;;;;2.00;1.33;;;12.60;31.80;;;;;;6310238;28;20234;-70
2022/04/18 10:58:16;;;;;;;1.30;1.20;;;12.80;31.90;;;;;;6310897;28;20177;-70
2022/04/18 11:01:18;;;;;;;2.53;1.20;;;12.80;32.00;;;;;;6286377;28;20248;-70
2022/04/18 11:04:35;;;;;;;1.47;1.37;;;13.00;33.30;;;;;;6284317;28;20251;-70
2022/04/18 11:07:41;;;;;;;1.10;1.00;;;13.30;31.60;;;;;;6284413;28;20186;-70
2022/04/18 11:10:44;;;;;;;1.90;1.50;;;13.50;31.00;;;;;;6281608;28;20213;-71
2022/04/18 11:13:49;;;;;;;1.60;1.40;;;13.80;32.20;;;;;;6295277;28;20236;-70
2022/04/18 11:16:56;;;;;;;1.33;1.23;;;14.00;30.50;;;;;;6297554;28;20201;-70
2022/04/18 11:19:57;;;;;;;2.60;1.60;;;14.20;30.70;;;;;;6303196;28;20262;-71
2022/04/18 11:23:17;;;;;;;1.70;1.20;;;14.30;29.80;;;;;;6300896;28;20185;-72
2022/04/18 11:26:20;;;;;;;1.87;1.33;;;14.60;30.10;;;;;;6306343;28;20192;-70
2022/04/18 11:29:21;;;;;;;2.03;1.60;;;14.80;30.20;;;;;;6289246;28;20200;-71
2022/04/18 11:32:27;;;;;;;3.17;1.50;;;15.10;29.30;;;;;;6278773;28;20244;-69
2022/04/18 11:35:28;;;;;;;1.77;1.43;;;15.90;29.40;;;;;;6287552;28;20189;-70
2022/04/18 11:38:29;;;;;;;1.30;1.10;;;16.50;28.10;;;;;;6259684;28;20247;-71
2022/04/18 11:41:30;;;;;;;1.80;1.23;;;17.00;27.80;;;;;;6269494;28;20193;-74
2022/04/18 11:44:41;;;;;;;2.30;1.20;;;18.10;27.00;;;;;;6273376;28;20204;-70
2022/04/18 11:47:47;;;;;;;2.40;1.70;;;19.60;26.10;;;;;;6289641;28;20197;-69
2022/04/18 11:50:48;;;;;;;2.47;1.30;;;20.50;24.10;;;;;;6294139;28;20201;-70
2022/04/18 11:54:00;;;;;;;1.40;1.30;;;20.50;24.00;;;;;;6272875;28;20216;-71
2022/04/18 11:57:03;;;;;;;1.20;1.00;;;21.20;23.90;;;;;;6282800;28;20201;-71
2022/04/18 12:00:13;;;;;;;1.53;1.37;;;22.20;22.80;;;;;;6272580;28;20229;-71
2022/04/18 12:06:45;;;;;;;1.57;1.20;;;20.10;23.10;;;;;;6294656;28;20201;-70
2022/04/18 12:09:46;;;;;;;1.40;1.30;;;19.10;24.80;;;;;;6289142;28;20197;-70
2022/04/18 12:12:48;;;;;;;1.77;1.13;;;18.20;25.40;;;;;;6282039;28;20199;-70
2022/04/18 12:15:49;;;;;;;1.53;1.03;;;17.60;26.30;;;;;;6293318;28;20306;-70
2022/04/18 12:18:54;;;;;;;1.73;1.20;;;17.40;27.10;;;;;;6283858;28;20290;-70
2022/04/18 12:21:56;;;;;;;1.37;1.23;;;18.00;27.90;;;;;;6270826;28;20186;-70
2022/04/18 12:50:09;;;;;;;5.30;1.80;;;23.80;34.70;;;;;;6349105;27;20720;-67
2022/04/18 12:53:10;;;;;;;2.67;1.87;;;22.20;40.90;;;;;;6293164;28;20189;-67
2022/04/18 12:56:11;;;;;;;2.00;1.43;;;22.30;41.60;;;;;;6248424;28;20225;-67
2022/04/18 12:59:14;;;;;;;4.50;2.13;;;22.40;42.10;;;;;;6290963;28;20181;-66
2022/04/18 13:02:14;;;;;;;2.73;1.80;;;22.30;42.80;;;;;;6271277;28;20209;-66
2022/04/18 13:05:27;;;;;;;5.00;1.80;;;22.60;43.30;;;;;;6275414;28;20184;-66
2022/04/18 13:08:28;;;;;;;2.43;1.90;;;22.70;44.00;;;;;;6273855;28;20266;-66
2022/04/18 13:11:40;;;;;;;2.17;1.80;;;22.90;44.00;;;;;;6276701;28;20200;-69
2022/04/18 13:15:05;;;;;;;3.30;1.50;;;22.80;44.40;;;;;;6272904;28;20198;-68
2022/04/18 13:18:11;;;;;;;3.70;1.67;;;22.80;45.00;;;;;;6276719;28;20198;-68
2022/04/18 13:21:12;;;;;;;3.03;1.83;;;22.80;45.10;;;;;;6299765;28;20205;-68
2022/04/18 13:24:12;;;;;;;4.80;2.00;;;22.80;45.50;;;;;;6281742;28;20192;-69
2022/04/18 13:27:24;;;;;;;4.47;1.90;;;22.70;45.60;;;;;;6292909;28;20286;-68
2022/04/18 13:30:26;;;;;;;1.70;1.57;;;22.80;46.00;;;;;;6276569;28;20271;-68
2022/04/18 13:33:27;;;;;;;1.97;1.77;;;22.80;46.30;;;;;;6293487;28;20200;-69
2022/04/18 13:36:30;;;;;;;2.83;1.60;;;22.80;46.80;;;;;;6293501;28;20188;-68
2022/04/18 13:39:31;;;;;;;3.50;2.00;;;22.90;46.60;;;;;;6310445;28;20201;-69
2022/04/18 13:42:33;;;;;;;2.00;1.70;;;23.30;46.30;;;;;;6293747;28;20227;-67
2022/04/18 13:45:34;;;;;;;2.97;1.70;;;23.40;46.40;;;;;;6291628;28;20193;-69
2022/04/18 13:48:34;;;;;;;1.87;1.73;;;23.50;46.20;;;;;;6287655;28;20372;-67
2022/04/18 13:51:35;;;;;;;5.43;1.83;;;23.40;46.50;;;;;;6243046;28;20197;-68
2022/04/18 13:54:37;;;;;;;1.90;1.43;;;23.30;47.00;;;;;;6222902;28;70740;-69
2022/04/18 13:57:38;;;;;;;4.20;1.50;;;23.20;47.30;;;;;;6221624;28;75258;-68
2022/04/18 15:03:20;;;;;;;7.43;2.10;;;24.90;38.30;;;;;;5119046;27;20299;-69
2022/04/18 15:05:46;;;;;;;8.17;2.00;;;24.20;41.20;;;;;;5031728;28;97004;-67
2022/04/18 15:25:39;;;;;;;1.90;1.13;;;24.60;34.20;;;;;;5024498;28;20635;-58
2022/04/18 15:28:05;;;;;;;1.10;0.90;;;25.60;36.30;;;;;;5022234;28;20232;-59
2022/04/18 15:33:15;;;;;;;2.47;0.90;;;26.00;36.90;;;;;;4992658;28;20215;-59
2022/04/18 15:35:41;;;;;;;2.53;0.93;;;26.00;36.80;;;;;;5012589;28;20603;-59
2022/04/18 15:38:07;;;;;;;2.37;1.10;;;25.80;37.90;;;;;;5001179;28;20251;-61
2022/04/18 15:40:34;;;;;;;1.33;0.80;;;25.70;38.50;;;;;;4991552;28;20287;-61
2022/04/18 15:42:59;;;;;;;0.83;0.80;;;25.40;39.10;;;;;;4973634;28;20234;-67
2022/04/18 15:45:25;;;;;;;0.80;0.80;;;22.60;22.80;;;;;;4967775;28;20269;-67
2022/04/18 15:47:51;;;;;;;1.20;0.90;;;20.70;23.70;;;;;;4967652;28;20224;-67
2022/04/18 15:50:17;;;;;;;0.73;0.73;;;19.00;26.20;;;;;;4967828;28;20241;-67
2022/04/18 15:52:43;;;;;;;1.03;0.70;;;18.50;26.60;;;;;;4955602;28;20195;-67
2022/04/18 15:55:09;;;;;;;0.80;0.80;;;17.60;26.80;;;;;;4939096;28;20284;-67
2022/04/18 15:57:34;;;;;;;1.27;0.80;;;16.50;28.30;;;;;;4955287;28;20174;-67
2022/04/18 16:00:00;;;;;;;0.97;0.80;;;16.10;29.30;;;;;;4939575;28;20241;-68
2022/04/18 16:02:26;;;;;;;1.00;0.90;;;15.60;30.40;;;;;;4954386;28;20212;-68
2022/04/18 16:04:51;;;;;;;1.10;1.00;;;15.10;30.30;;;;;;4939069;28;20186;-68
2022/04/18 16:07:17;;;;;;;1.13;0.80;;;14.70;31.10;;;;;;4935487;28;20218;-68
2022/04/18 16:09:43;;;;;;;0.97;0.73;;;14.50;31.80;;;;;;4935638;28;20190;-68
2022/04/18 16:12:08;;;;;;;1.13;0.80;;;14.20;32.10;;;;;;4951254;29;20194;-68
2022/04/18 16:14:34;;;;;;;1.80;0.90;;;14.00;32.60;;;;;;4950105;29;20211;-69
2022/04/18 16:17:00;;;;;;;1.77;1.03;;;13.90;33.30;;;;;;4945025;28;20225;-68
2022/04/18 16:19:27;;;;;;;0.80;0.80;;;13.80;33.80;;;;;;4946096;29;20179;-69
2022/04/18 16:21:53;;;;;;;1.30;1.07;;;13.80;34.50;;;;;;4956540;28;20185;-66
2022/04/18 16:24:19;;;;;;;0.70;0.70;;;13.70;35.20;;;;;;4965418;28;74035;-68
2022/04/18 16:26:44;;;;;;;2.17;1.00;;;13.50;34.30;;;;;;4979832;28;20270;-64
2022/04/18 16:31:54;;;;;;;1.60;1.20;;;13.40;34.80;;;;;;4996576;28;20204;-68
2022/04/18 16:34:22;;;;;;;1.53;0.90;;;13.30;35.00;;;;;;4995583;28;20188;-63
2022/04/18 16:36:51;;;;;;;2.73;1.03;;;13.30;35.70;;;;;;4995254;28;20189;-68
2022/04/18 16:39:18;;;;;;;1.10;1.00;;;13.30;34.90;;;;;;4981510;28;20200;-68
2022/04/18 16:47:13;;;;;;;1.30;0.90;;;12.80;35.90;;;;;;4998597;28;20250;-70
2022/04/18 16:49:38;;;;;;;2.57;1.33;;;12.90;35.40;;;;;;4968471;28;20189;-67
2022/04/18 16:52:05;;;;;;;1.00;0.90;;;12.80;35.50;;;;;;4960610;28;20192;-67
2022/04/18 16:54:30;;;;;;;1.60;1.30;;;12.80;36.40;;;;;;4944602;28;20182;-67
2022/04/18 16:56:56;;;;;;;1.50;1.10;;;12.70;37.10;;;;;;4962970;28;20189;-65
2022/04/18 16:59:22;;;;;;;1.30;1.17;;;12.70;37.40;;;;;;4969352;28;20271;-64
2022/04/18 17:01:47;;;;;;;1.20;0.90;;;12.50;38.90;;;;;;4969883;28;20224;-66
2022/04/18 17:04:13;;;;;;;1.30;1.20;;;12.50;39.00;;;;;;4964876;28;20229;-66
2022/04/18 17:06:38;;;;;;;2.03;1.27;;;12.40;38.90;;;;;;4968036;28;20218;-66
2022/04/18 17:09:04;;;;;;;0.97;0.93;;;12.30;39.90;;;;;;5008375;28;20188;-66
2022/04/18 17:11:30;;;;;;;0.90;0.90;;;12.30;40.20;;;;;;4995544;28;20261;-66
2022/04/18 17:13:56;;;;;;;1.80;1.17;;;12.30;40.20;;;;;;4981343;28;20190;-66
2022/04/18 17:16:22;;;;;;;1.17;0.80;;;12.30;41.60;;;;;;4969066;28;20200;-65
2022/04/18 17:18:48;;;;;;;1.73;1.20;;;12.20;41.90;;;;;;4991078;28;20210;-65
2022/04/18 17:21:14;;;;;;;4.10;1.03;;;12.10;42.50;;;;;;4979568;28;20262;-66
2022/04/18 17:23:39;;;;;;;2.20;0.87;;;12.00;42.40;;;;;;4988275;28;20232;-66
2022/04/18 17:26:05;;;;;;;4.90;1.37;;;12.00;43.20;;;;;;4951365;28;20197;-66
2022/04/18 17:28:32;;;;;;;5.30;1.03;;;11.90;43.10;;;;;;4963400;28;20213;-66
2022/04/18 17:30:59;;;;;;;2.30;0.80;;;11.90;43.40;;;;;;4962880;28;20278;-65
2022/04/18 17:33:25;;;;;;;1.20;1.00;;;11.80;43.80;;;;;;4959820;28;20192;-65
2022/04/18 17:35:51;;;;;;;3.70;1.60;;;11.80;44.10;;;;;;4967728;28;20188;-65
2022/04/18 17:38:17;;;;;;;1.40;1.00;;;11.70;44.20;;;;;;4996879;28;20188;-66
2022/04/18 17:40:42;;;;;;;2.80;1.03;;;11.60;43.90;;;;;;4982132;28;20211;-66
2022/04/18 17:43:08;;;;;;;1.23;1.00;;;11.50;43.80;;;;;;4968801;28;20208;-67
2022/04/18 17:45:34;;;;;;;1.50;1.10;;;11.30;43.70;;;;;;4976227;28;20196;-67
2022/04/18 17:47:59;;;;;;;2.43;0.90;;;11.40;43.50;;;;;;5009759;28;20218;-67
2022/04/18 17:50:25;;;;;;;1.70;1.33;;;11.30;43.90;;;;;;4988326;28;20192;-66